sensor_id;sensor_type;location;lat;lon;timestamp;P1;durP1;ratioP1;P2;durP2;ratioP2
19434;SDS011;9853;50.848;4.108;2023-07-29T00:00:43;4.18;;;1.00;;
19434;SDS011;9853;50.848;4.108;2023-07-29T00:02:44;6.05;;;0.80;;
19434;SDS011;9853;50.848;4.108;2023-07-29T00:04:45;1.80;;;1.00;;
19434;SDS011;9853;50.848;4.108;2023-07-29T00:06:46;2.83;;;0.90;;
19434;SDS011;9853;50.848;4.108;2023-07-29T00:08:47;2.70;;;1.00;;
19434;SDS011;9853;50.848;4.108;2023-07-29T00:10:48;3.28;;;1.00;;
19434;SDS011;9853;50.848;4.108;2023-07-29T00:12:48;2.85;;;1.08;;
19434;SDS011;9853;50.848;4.108;2023-07-29T00:14:49;6.07;;;0.98;;
19434;SDS011;9853;50.848;4.108;2023-07-29T00:16:50;4.40;;;1.05;;
19434;SDS011;9853;50.848;4.108;2023-07-29T00:18:51;3.17;;;0.90;;
19434;SDS011;9853;50.848;4.108;2023-07-29T00:20:52;2.20;;;1.02;;
19434;SDS011;9853;50.848;4.108;2023-07-29T00:22:52;5.43;;;0.95;;
19434;SDS011;9853;50.848;4.108;2023-07-29T00:24:54;2.92;;;1.10;;
19434;SDS011;9853;50.848;4.108;2023-07-29T00:26:55;1.92;;;1.10;;
19434;SDS011;9853;50.848;4.108;2023-07-29T00:28:56;4.47;;;1.23;;
19434;SDS011;9853;50.848;4.108;2023-07-29T00:30:57;5.30;;;1.42;;
19434;SDS011;9853;50.848;4.108;2023-07-29T00:32:58;1.55;;;1.20;;
19434;SDS011;9853;50.848;4.108;2023-07-29T00:34:58;3.30;;;1.10;;
19434;SDS011;9853;50.848;4.108;2023-07-29T00:37:01;5.18;;;0.98;;
19434;SDS011;9853;50.848;4.108;2023-07-29T00:39:01;4.75;;;1.48;;
19434;SDS011;9853;50.848;4.108;2023-07-29T00:41:03;3.90;;;1.13;;
19434;SDS011;9853;50.848;4.108;2023-07-29T00:43:03;3.95;;;1.13;;
19434;SDS011;9853;50.848;4.108;2023-07-29T00:45:04;5.80;;;1.15;;
19434;SDS011;9853;50.848;4.108;2023-07-29T00:47:07;4.18;;;1.30;;
19434;SDS011;9853;50.848;4.108;2023-07-29T00:49:08;3.97;;;1.15;;
19434;SDS011;9853;50.848;4.108;2023-07-29T00:51:09;2.75;;;1.00;;
19434;SDS011;9853;50.848;4.108;2023-07-29T00:53:10;5.10;;;1.27;;
19434;SDS011;9853;50.848;4.108;2023-07-29T00:55:11;3.00;;;1.33;;
19434;SDS011;9853;50.848;4.108;2023-07-29T00:57:12;5.22;;;1.20;;
19434;SDS011;9853;50.848;4.108;2023-07-29T00:59:16;2.60;;;1.05;;
19434;SDS011;9853;50.848;4.108;2023-07-29T01:01:17;2.10;;;1.10;;
19434;SDS011;9853;50.848;4.108;2023-07-29T01:03:18;7.28;;;1.50;;
19434;SDS011;9853;50.848;4.108;2023-07-29T01:05:19;3.22;;;1.10;;
19434;SDS011;9853;50.848;4.108;2023-07-29T01:09:25;6.82;;;1.33;;
19434;SDS011;9853;50.848;4.108;2023-07-29T01:16:13;5.40;;;1.15;;
19434;SDS011;9853;50.848;4.108;2023-07-29T01:18:35;4.75;;;1.40;;
19434;SDS011;9853;50.848;4.108;2023-07-29T01:20:38;3.80;;;1.35;;
19434;SDS011;9853;50.848;4.108;2023-07-29T01:22:42;7.10;;;1.20;;
19434;SDS011;9853;50.848;4.108;2023-07-29T01:24:42;4.93;;;1.13;;
19434;SDS011;9853;50.848;4.108;2023-07-29T01:26:43;3.33;;;1.05;;
19434;SDS011;9853;50.848;4.108;2023-07-29T01:28:44;2.67;;;1.13;;
19434;SDS011;9853;50.848;4.108;2023-07-29T01:30:45;2.33;;;0.95;;
19434;SDS011;9853;50.848;4.108;2023-07-29T01:32:53;4.95;;;1.40;;
19434;SDS011;9853;50.848;4.108;2023-07-29T01:35:00;2.17;;;1.10;;
19434;SDS011;9853;50.848;4.108;2023-07-29T01:37:02;2.45;;;1.00;;
19434;SDS011;9853;50.848;4.108;2023-07-29T01:39:08;4.53;;;1.33;;
19434;SDS011;9853;50.848;4.108;2023-07-29T01:41:13;4.32;;;1.20;;
19434;SDS011;9853;50.848;4.108;2023-07-29T01:43:16;2.95;;;1.20;;
19434;SDS011;9853;50.848;4.108;2023-07-29T01:45:18;4.20;;;1.40;;
19434;SDS011;9853;50.848;4.108;2023-07-29T01:47:22;2.08;;;1.02;;
19434;SDS011;9853;50.848;4.108;2023-07-29T01:49:23;4.43;;;1.45;;
19434;SDS011;9853;50.848;4.108;2023-07-29T01:51:24;4.25;;;1.30;;
19434;SDS011;9853;50.848;4.108;2023-07-29T01:53:25;2.60;;;1.45;;
19434;SDS011;9853;50.848;4.108;2023-07-29T01:55:26;1.63;;;1.30;;
19434;SDS011;9853;50.848;4.108;2023-07-29T01:57:28;5.03;;;1.60;;
19434;SDS011;9853;50.848;4.108;2023-07-29T01:59:28;4.13;;;1.58;;
19434;SDS011;9853;50.848;4.108;2023-07-29T02:01:29;4.72;;;1.70;;
19434;SDS011;9853;50.848;4.108;2023-07-29T02:03:31;4.85;;;1.95;;
19434;SDS011;9853;50.848;4.108;2023-07-29T02:05:32;4.63;;;1.52;;
19434;SDS011;9853;50.848;4.108;2023-07-29T02:07:32;2.80;;;1.33;;
19434;SDS011;9853;50.848;4.108;2023-07-29T02:09:33;2.65;;;1.52;;
19434;SDS011;9853;50.848;4.108;2023-07-29T02:11:34;3.47;;;1.63;;
19434;SDS011;9853;50.848;4.108;2023-07-29T02:13:35;4.10;;;1.67;;
19434;SDS011;9853;50.848;4.108;2023-07-29T02:15:36;5.25;;;1.58;;
19434;SDS011;9853;50.848;4.108;2023-07-29T02:17:36;3.55;;;1.30;;
19434;SDS011;9853;50.848;4.108;2023-07-29T02:19:37;3.05;;;1.50;;
19434;SDS011;9853;50.848;4.108;2023-07-29T02:21:38;3.65;;;1.55;;
19434;SDS011;9853;50.848;4.108;2023-07-29T02:23:40;5.78;;;1.60;;
19434;SDS011;9853;50.848;4.108;2023-07-29T02:25:41;4.47;;;1.52;;
19434;SDS011;9853;50.848;4.108;2023-07-29T02:27:41;4.28;;;1.52;;
19434;SDS011;9853;50.848;4.108;2023-07-29T02:29:42;3.40;;;1.50;;
19434;SDS011;9853;50.848;4.108;2023-07-29T02:31:43;7.68;;;1.65;;
19434;SDS011;9853;50.848;4.108;2023-07-29T02:33:44;5.43;;;1.50;;
19434;SDS011;9853;50.848;4.108;2023-07-29T02:35:45;4.68;;;1.60;;
19434;SDS011;9853;50.848;4.108;2023-07-29T02:37:46;5.05;;;1.33;;
19434;SDS011;9853;50.848;4.108;2023-07-29T02:39:47;6.05;;;1.70;;
19434;SDS011;9853;50.848;4.108;2023-07-29T02:41:47;4.63;;;1.48;;
19434;SDS011;9853;50.848;4.108;2023-07-29T02:43:49;3.33;;;1.50;;
19434;SDS011;9853;50.848;4.108;2023-07-29T02:45:50;4.78;;;1.80;;
19434;SDS011;9853;50.848;4.108;2023-07-29T02:47:51;3.20;;;1.60;;
19434;SDS011;9853;50.848;4.108;2023-07-29T02:49:52;8.80;;;1.40;;
19434;SDS011;9853;50.848;4.108;2023-07-29T02:51:52;2.88;;;1.60;;
19434;SDS011;9853;50.848;4.108;2023-07-29T02:53:53;4.18;;;1.73;;
19434;SDS011;9853;50.848;4.108;2023-07-29T02:55:54;6.72;;;1.70;;
19434;SDS011;9853;50.848;4.108;2023-07-29T02:57:55;5.47;;;1.92;;
19434;SDS011;9853;50.848;4.108;2023-07-29T02:59:55;3.08;;;1.50;;
19434;SDS011;9853;50.848;4.108;2023-07-29T03:01:56;5.82;;;1.70;;
19434;SDS011;9853;50.848;4.108;2023-07-29T03:03:57;5.00;;;1.60;;
19434;SDS011;9853;50.848;4.108;2023-07-29T03:06:07;6.35;;;1.98;;
19434;SDS011;9853;50.848;4.108;2023-07-29T03:08:08;4.43;;;2.10;;
19434;SDS011;9853;50.848;4.108;2023-07-29T03:10:09;3.25;;;2.15;;
19434;SDS011;9853;50.848;4.108;2023-07-29T03:12:11;6.47;;;2.30;;
19434;SDS011;9853;50.848;4.108;2023-07-29T03:14:12;7.13;;;1.88;;
19434;SDS011;9853;50.848;4.108;2023-07-29T03:16:16;3.47;;;2.03;;
19434;SDS011;9853;50.848;4.108;2023-07-29T03:18:24;5.10;;;1.98;;
19434;SDS011;9853;50.848;4.108;2023-07-29T03:20:25;5.00;;;2.13;;
19434;SDS011;9853;50.848;4.108;2023-07-29T03:22:25;6.93;;;2.20;;
19434;SDS011;9853;50.848;4.108;2023-07-29T03:24:26;9.05;;;1.90;;
19434;SDS011;9853;50.848;4.108;2023-07-29T03:26:27;5.18;;;2.00;;
19434;SDS011;9853;50.848;4.108;2023-07-29T03:28:29;3.50;;;2.20;;
19434;SDS011;9853;50.848;4.108;2023-07-29T03:30:32;10.32;;;2.65;;
19434;SDS011;9853;50.848;4.108;2023-07-29T03:32:33;6.70;;;2.20;;
19434;SDS011;9853;50.848;4.108;2023-07-29T03:34:33;4.40;;;2.05;;
19434;SDS011;9853;50.848;4.108;2023-07-29T03:36:34;5.82;;;2.15;;
19434;SDS011;9853;50.848;4.108;2023-07-29T03:38:35;3.85;;;2.03;;
19434;SDS011;9853;50.848;4.108;2023-07-29T03:40:40;7.82;;;2.40;;
19434;SDS011;9853;50.848;4.108;2023-07-29T03:42:41;4.88;;;2.25;;
19434;SDS011;9853;50.848;4.108;2023-07-29T03:44:42;4.90;;;2.00;;
19434;SDS011;9853;50.848;4.108;2023-07-29T03:46:42;6.35;;;2.30;;
19434;SDS011;9853;50.848;4.108;2023-07-29T03:48:44;8.68;;;2.60;;
19434;SDS011;9853;50.848;4.108;2023-07-29T03:50:45;5.93;;;2.20;;
19434;SDS011;9853;50.848;4.108;2023-07-29T03:52:46;4.25;;;1.88;;
19434;SDS011;9853;50.848;4.108;2023-07-29T03:54:47;8.07;;;1.90;;
19434;SDS011;9853;50.848;4.108;2023-07-29T03:56:47;2.97;;;2.13;;
19434;SDS011;9853;50.848;4.108;2023-07-29T03:58:48;4.88;;;2.10;;
19434;SDS011;9853;50.848;4.108;2023-07-29T04:00:49;5.60;;;1.90;;
19434;SDS011;9853;50.848;4.108;2023-07-29T04:02:50;6.35;;;2.22;;
19434;SDS011;9853;50.848;4.108;2023-07-29T04:04:51;5.47;;;2.30;;
19434;SDS011;9853;50.848;4.108;2023-07-29T04:06:52;3.40;;;2.25;;
19434;SDS011;9853;50.848;4.108;2023-07-29T04:08:53;5.78;;;2.10;;
19434;SDS011;9853;50.848;4.108;2023-07-29T04:10:54;4.68;;;2.35;;
19434;SDS011;9853;50.848;4.108;2023-07-29T04:12:54;7.28;;;2.45;;
19434;SDS011;9853;50.848;4.108;2023-07-29T04:14:55;7.07;;;1.80;;
19434;SDS011;9853;50.848;4.108;2023-07-29T04:16:56;5.30;;;2.20;;
19434;SDS011;9853;50.848;4.108;2023-07-29T04:18:57;5.10;;;2.10;;
19434;SDS011;9853;50.848;4.108;2023-07-29T04:20:57;4.95;;;1.88;;
19434;SDS011;9853;50.848;4.108;2023-07-29T04:22:58;3.90;;;2.05;;
19434;SDS011;9853;50.848;4.108;2023-07-29T04:24:59;6.05;;;2.15;;
19434;SDS011;9853;50.848;4.108;2023-07-29T04:27:00;4.45;;;1.80;;
19434;SDS011;9853;50.848;4.108;2023-07-29T04:29:00;3.15;;;1.90;;
19434;SDS011;9853;50.848;4.108;2023-07-29T04:31:01;7.22;;;1.92;;
19434;SDS011;9853;50.848;4.108;2023-07-29T04:33:02;3.50;;;2.00;;
19434;SDS011;9853;50.848;4.108;2023-07-29T04:35:03;4.78;;;2.00;;
19434;SDS011;9853;50.848;4.108;2023-07-29T04:37:04;9.40;;;2.05;;
19434;SDS011;9853;50.848;4.108;2023-07-29T04:39:05;3.00;;;1.77;;
19434;SDS011;9853;50.848;4.108;2023-07-29T04:41:06;3.00;;;1.80;;
19434;SDS011;9853;50.848;4.108;2023-07-29T04:43:09;3.88;;;2.10;;
19434;SDS011;9853;50.848;4.108;2023-07-29T04:45:09;5.13;;;2.40;;
19434;SDS011;9853;50.848;4.108;2023-07-29T04:47:10;4.05;;;2.00;;
19434;SDS011;9853;50.848;4.108;2023-07-29T04:49:11;3.70;;;1.90;;
19434;SDS011;9853;50.848;4.108;2023-07-29T04:51:12;4.75;;;1.90;;
19434;SDS011;9853;50.848;4.108;2023-07-29T04:53:14;6.68;;;2.00;;
19434;SDS011;9853;50.848;4.108;2023-07-29T04:55:15;7.25;;;1.90;;
19434;SDS011;9853;50.848;4.108;2023-07-29T04:57:16;6.85;;;2.30;;
19434;SDS011;9853;50.848;4.108;2023-07-29T04:59:17;2.55;;;1.50;;
19434;SDS011;9853;50.848;4.108;2023-07-29T05:01:17;4.38;;;2.15;;
19434;SDS011;9853;50.848;4.108;2023-07-29T05:03:18;5.63;;;1.70;;
19434;SDS011;9853;50.848;4.108;2023-07-29T05:05:19;5.75;;;1.55;;
19434;SDS011;9853;50.848;4.108;2023-07-29T05:07:21;5.30;;;1.90;;
19434;SDS011;9853;50.848;4.108;2023-07-29T05:09:21;5.68;;;1.98;;
19434;SDS011;9853;50.848;4.108;2023-07-29T05:11:22;3.15;;;1.63;;
19434;SDS011;9853;50.848;4.108;2023-07-29T05:13:25;6.10;;;1.95;;
19434;SDS011;9853;50.848;4.108;2023-07-29T05:15:26;9.30;;;1.80;;
19434;SDS011;9853;50.848;4.108;2023-07-29T05:17:26;8.23;;;2.33;;
19434;SDS011;9853;50.848;4.108;2023-07-29T05:19:27;4.72;;;2.03;;
19434;SDS011;9853;50.848;4.108;2023-07-29T05:21:28;5.43;;;2.00;;
19434;SDS011;9853;50.848;4.108;2023-07-29T05:23:29;7.03;;;2.03;;
19434;SDS011;9853;50.848;4.108;2023-07-29T05:25:30;5.15;;;1.92;;
19434;SDS011;9853;50.848;4.108;2023-07-29T05:27:31;4.57;;;2.00;;
19434;SDS011;9853;50.848;4.108;2023-07-29T05:29:31;3.83;;;1.90;;
19434;SDS011;9853;50.848;4.108;2023-07-29T05:31:32;4.95;;;1.88;;
19434;SDS011;9853;50.848;4.108;2023-07-29T05:33:33;4.47;;;1.85;;
19434;SDS011;9853;50.848;4.108;2023-07-29T05:35:34;9.27;;;1.90;;
19434;SDS011;9853;50.848;4.108;2023-07-29T05:37:34;4.60;;;1.83;;
19434;SDS011;9853;50.848;4.108;2023-07-29T05:39:38;3.33;;;1.67;;
19434;SDS011;9853;50.848;4.108;2023-07-29T05:41:38;8.48;;;1.77;;
19434;SDS011;9853;50.848;4.108;2023-07-29T05:43:39;4.18;;;1.80;;
19434;SDS011;9853;50.848;4.108;2023-07-29T05:45:40;4.65;;;1.52;;
19434;SDS011;9853;50.848;4.108;2023-07-29T05:47:41;5.10;;;1.75;;
19434;SDS011;9853;50.848;4.108;2023-07-29T05:49:42;3.00;;;1.30;;
19434;SDS011;9853;50.848;4.108;2023-07-29T05:51:42;2.30;;;1.40;;
19434;SDS011;9853;50.848;4.108;2023-07-29T05:53:43;7.63;;;1.60;;
19434;SDS011;9853;50.848;4.108;2023-07-29T05:55:44;3.28;;;1.60;;
19434;SDS011;9853;50.848;4.108;2023-07-29T05:57:45;4.45;;;1.70;;
19434;SDS011;9853;50.848;4.108;2023-07-29T05:59:46;3.45;;;1.60;;
19434;SDS011;9853;50.848;4.108;2023-07-29T06:01:47;2.00;;;1.27;;
19434;SDS011;9853;50.848;4.108;2023-07-29T06:03:47;5.05;;;1.50;;
19434;SDS011;9853;50.848;4.108;2023-07-29T06:05:48;3.40;;;1.35;;
19434;SDS011;9853;50.848;4.108;2023-07-29T06:07:49;2.22;;;1.20;;
19434;SDS011;9853;50.848;4.108;2023-07-29T06:09:50;3.58;;;1.33;;
19434;SDS011;9853;50.848;4.108;2023-07-29T06:11:53;2.80;;;1.38;;
19434;SDS011;9853;50.848;4.108;2023-07-29T06:13:54;5.75;;;1.10;;
19434;SDS011;9853;50.848;4.108;2023-07-29T06:15:55;1.85;;;1.05;;
19434;SDS011;9853;50.848;4.108;2023-07-29T06:17:56;2.95;;;1.20;;
19434;SDS011;9853;50.848;4.108;2023-07-29T06:19:56;5.88;;;1.15;;
19434;SDS011;9853;50.848;4.108;2023-07-29T06:21:57;1.45;;;1.10;;
19434;SDS011;9853;50.848;4.108;2023-07-29T06:23:58;2.22;;;1.00;;
19434;SDS011;9853;50.848;4.108;2023-07-29T06:25:59;2.55;;;1.05;;
19434;SDS011;9853;50.848;4.108;2023-07-29T06:28:00;5.05;;;0.90;;
19434;SDS011;9853;50.848;4.108;2023-07-29T06:30:01;3.85;;;1.20;;
19434;SDS011;9853;50.848;4.108;2023-07-29T06:32:02;6.15;;;1.02;;
19434;SDS011;9853;50.848;4.108;2023-07-29T06:34:03;2.65;;;1.20;;
19434;SDS011;9853;50.848;4.108;2023-07-29T06:36:04;2.75;;;1.10;;
19434;SDS011;9853;50.848;4.108;2023-07-29T06:38:04;4.55;;;1.30;;
19434;SDS011;9853;50.848;4.108;2023-07-29T06:40:05;2.83;;;0.95;;
19434;SDS011;9853;50.848;4.108;2023-07-29T06:42:06;2.25;;;1.00;;
19434;SDS011;9853;50.848;4.108;2023-07-29T06:44:07;1.60;;;0.90;;
19434;SDS011;9853;50.848;4.108;2023-07-29T06:46:08;2.58;;;1.20;;
19434;SDS011;9853;50.848;4.108;2023-07-29T06:48:09;2.53;;;1.17;;
19434;SDS011;9853;50.848;4.108;2023-07-29T06:50:09;2.90;;;1.10;;
19434;SDS011;9853;50.848;4.108;2023-07-29T06:52:10;3.25;;;1.45;;
19434;SDS011;9853;50.848;4.108;2023-07-29T06:54:11;2.58;;;1.20;;
19434;SDS011;9853;50.848;4.108;2023-07-29T06:56:12;3.88;;;1.15;;
19434;SDS011;9853;50.848;4.108;2023-07-29T06:58:12;2.97;;;1.05;;
19434;SDS011;9853;50.848;4.108;2023-07-29T07:00:13;2.65;;;0.93;;
19434;SDS011;9853;50.848;4.108;2023-07-29T07:02:14;3.00;;;1.13;;
19434;SDS011;9853;50.848;4.108;2023-07-29T07:04:15;7.63;;;1.10;;
19434;SDS011;9853;50.848;4.108;2023-07-29T07:06:15;1.83;;;1.10;;
19434;SDS011;9853;50.848;4.108;2023-07-29T07:08:16;3.65;;;1.05;;
19434;SDS011;9853;50.848;4.108;2023-07-29T07:10:17;5.70;;;1.30;;
19434;SDS011;9853;50.848;4.108;2023-07-29T07:12:18;3.88;;;1.10;;
19434;SDS011;9853;50.848;4.108;2023-07-29T07:14:18;5.55;;;1.17;;
19434;SDS011;9853;50.848;4.108;2023-07-29T07:16:19;2.63;;;0.90;;
19434;SDS011;9853;50.848;4.108;2023-07-29T07:18:20;2.35;;;1.20;;
19434;SDS011;9853;50.848;4.108;2023-07-29T07:20:24;3.30;;;1.10;;
19434;SDS011;9853;50.848;4.108;2023-07-29T07:22:24;3.22;;;1.10;;
19434;SDS011;9853;50.848;4.108;2023-07-29T07:24:25;1.92;;;1.00;;
19434;SDS011;9853;50.848;4.108;2023-07-29T07:26:26;5.88;;;1.25;;
19434;SDS011;9853;50.848;4.108;2023-07-29T07:28:27;4.35;;;1.30;;
19434;SDS011;9853;50.848;4.108;2023-07-29T07:30:27;3.45;;;0.93;;
19434;SDS011;9853;50.848;4.108;2023-07-29T07:32:28;3.55;;;1.10;;
19434;SDS011;9853;50.848;4.108;2023-07-29T07:34:29;3.55;;;1.02;;
19434;SDS011;9853;50.848;4.108;2023-07-29T07:36:30;3.75;;;1.00;;
19434;SDS011;9853;50.848;4.108;2023-07-29T07:38:30;2.13;;;1.25;;
19434;SDS011;9853;50.848;4.108;2023-07-29T07:40:31;5.57;;;1.10;;
19434;SDS011;9853;50.848;4.108;2023-07-29T07:42:32;3.63;;;1.25;;
19434;SDS011;9853;50.848;4.108;2023-07-29T07:44:33;1.80;;;0.80;;
19434;SDS011;9853;50.848;4.108;2023-07-29T07:46:34;2.65;;;1.00;;
19434;SDS011;9853;50.848;4.108;2023-07-29T07:48:35;2.85;;;0.85;;
19434;SDS011;9853;50.848;4.108;2023-07-29T07:50:35;3.67;;;0.90;;
19434;SDS011;9853;50.848;4.108;2023-07-29T07:52:36;2.65;;;0.90;;
19434;SDS011;9853;50.848;4.108;2023-07-29T07:54:37;4.18;;;0.90;;
19434;SDS011;9853;50.848;4.108;2023-07-29T07:56:37;2.90;;;0.85;;
19434;SDS011;9853;50.848;4.108;2023-07-29T07:58:38;1.95;;;0.98;;
19434;SDS011;9853;50.848;4.108;2023-07-29T08:00:39;5.28;;;0.90;;
19434;SDS011;9853;50.848;4.108;2023-07-29T08:02:40;2.88;;;0.90;;
19434;SDS011;9853;50.848;4.108;2023-07-29T08:04:40;1.50;;;0.80;;
19434;SDS011;9853;50.848;4.108;2023-07-29T08:06:41;3.05;;;0.80;;
19434;SDS011;9853;50.848;4.108;2023-07-29T08:08:42;5.22;;;1.10;;
19434;SDS011;9853;50.848;4.108;2023-07-29T08:10:42;5.63;;;1.00;;
19434;SDS011;9853;50.848;4.108;2023-07-29T08:12:43;3.17;;;1.00;;
19434;SDS011;9853;50.848;4.108;2023-07-29T08:14:44;3.08;;;0.70;;
19434;SDS011;9853;50.848;4.108;2023-07-29T08:16:44;1.00;;;0.63;;
19434;SDS011;9853;50.848;4.108;2023-07-29T08:18:45;3.10;;;0.70;;
19434;SDS011;9853;50.848;4.108;2023-07-29T08:22:58;4.78;;;0.77;;
19434;SDS011;9853;50.848;4.108;2023-07-29T08:24:58;2.28;;;0.80;;
19434;SDS011;9853;50.848;4.108;2023-07-29T08:26:59;4.40;;;0.95;;
19434;SDS011;9853;50.848;4.108;2023-07-29T08:29:00;3.38;;;0.80;;
19434;SDS011;9853;50.848;4.108;2023-07-29T08:31:01;3.28;;;1.23;;
19434;SDS011;9853;50.848;4.108;2023-07-29T08:33:02;3.92;;;0.80;;
19434;SDS011;9853;50.848;4.108;2023-07-29T08:35:03;2.33;;;0.80;;
19434;SDS011;9853;50.848;4.108;2023-07-29T08:37:04;4.00;;;1.20;;
19434;SDS011;9853;50.848;4.108;2023-07-29T08:39:05;3.90;;;0.82;;
19434;SDS011;9853;50.848;4.108;2023-07-29T08:41:16;1.35;;;0.75;;
19434;SDS011;9853;50.848;4.108;2023-07-29T08:43:20;2.95;;;0.70;;
19434;SDS011;9853;50.848;4.108;2023-07-29T08:45:28;2.28;;;0.73;;
19434;SDS011;9853;50.848;4.108;2023-07-29T08:47:30;3.00;;;1.00;;
19434;SDS011;9853;50.848;4.108;2023-07-29T08:49:31;4.57;;;0.90;;
19434;SDS011;9853;50.848;4.108;2023-07-29T08:51:32;2.45;;;1.05;;
19434;SDS011;9853;50.848;4.108;2023-07-29T08:53:35;5.32;;;1.48;;
19434;SDS011;9853;50.848;4.108;2023-07-29T08:55:36;2.33;;;0.93;;
19434;SDS011;9853;50.848;4.108;2023-07-29T08:57:37;3.28;;;1.00;;
19434;SDS011;9853;50.848;4.108;2023-07-29T08:59:38;2.65;;;1.00;;
19434;SDS011;9853;50.848;4.108;2023-07-29T09:01:39;3.17;;;1.00;;
19434;SDS011;9853;50.848;4.108;2023-07-29T09:03:40;4.47;;;0.90;;
19434;SDS011;9853;50.848;4.108;2023-07-29T09:05:41;1.98;;;1.00;;
19434;SDS011;9853;50.848;4.108;2023-07-29T09:07:42;2.42;;;1.10;;
19434;SDS011;9853;50.848;4.108;2023-07-29T09:09:44;2.92;;;1.02;;
19434;SDS011;9853;50.848;4.108;2023-07-29T09:11:45;1.40;;;0.88;;
19434;SDS011;9853;50.848;4.108;2023-07-29T09:13:46;1.52;;;1.05;;
19434;SDS011;9853;50.848;4.108;2023-07-29T09:15:47;1.90;;;1.08;;
19434;SDS011;9853;50.848;4.108;2023-07-29T09:17:48;4.80;;;0.80;;
19434;SDS011;9853;50.848;4.108;2023-07-29T09:19:49;2.60;;;1.00;;
19434;SDS011;9853;50.848;4.108;2023-07-29T09:21:50;1.70;;;1.00;;
19434;SDS011;9853;50.848;4.108;2023-07-29T09:23:51;3.53;;;1.08;;
19434;SDS011;9853;50.848;4.108;2023-07-29T09:26:00;1.27;;;0.82;;
19434;SDS011;9853;50.848;4.108;2023-07-29T09:28:02;1.48;;;1.00;;
19434;SDS011;9853;50.848;4.108;2023-07-29T09:30:20;3.03;;;1.00;;
19434;SDS011;9853;50.848;4.108;2023-07-29T09:32:21;2.85;;;1.10;;
19434;SDS011;9853;50.848;4.108;2023-07-29T09:34:23;3.10;;;1.00;;
19434;SDS011;9853;50.848;4.108;2023-07-29T09:36:24;4.45;;;1.10;;
19434;SDS011;9853;50.848;4.108;2023-07-29T09:38:28;4.97;;;1.13;;
19434;SDS011;9853;50.848;4.108;2023-07-29T09:40:35;1.30;;;1.00;;
19434;SDS011;9853;50.848;4.108;2023-07-29T09:42:37;2.22;;;1.00;;
19434;SDS011;9853;50.848;4.108;2023-07-29T09:44:38;3.53;;;1.10;;
19434;SDS011;9853;50.848;4.108;2023-07-29T09:46:38;1.80;;;0.90;;
19434;SDS011;9853;50.848;4.108;2023-07-29T09:48:40;3.10;;;0.90;;
19434;SDS011;9853;50.848;4.108;2023-07-29T09:50:42;4.65;;;1.13;;
19434;SDS011;9853;50.848;4.108;2023-07-29T09:52:43;2.92;;;1.40;;
19434;SDS011;9853;50.848;4.108;2023-07-29T09:54:44;1.83;;;1.20;;
19434;SDS011;9853;50.848;4.108;2023-07-29T09:56:46;2.75;;;1.17;;
19434;SDS011;9853;50.848;4.108;2023-07-29T09:58:47;4.05;;;0.93;;
19434;SDS011;9853;50.848;4.108;2023-07-29T10:00:48;3.40;;;1.23;;
19434;SDS011;9853;50.848;4.108;2023-07-29T10:02:49;3.13;;;1.00;;
19434;SDS011;9853;50.848;4.108;2023-07-29T10:04:51;2.97;;;1.17;;
19434;SDS011;9853;50.848;4.108;2023-07-29T10:06:52;1.90;;;0.75;;
19434;SDS011;9853;50.848;4.108;2023-07-29T10:08:53;2.20;;;1.00;;
19434;SDS011;9853;50.848;4.108;2023-07-29T10:10:55;5.32;;;1.00;;
19434;SDS011;9853;50.848;4.108;2023-07-29T10:12:57;6.95;;;1.10;;
19434;SDS011;9853;50.848;4.108;2023-07-29T10:14:59;2.95;;;1.00;;
19434;SDS011;9853;50.848;4.108;2023-07-29T10:17:00;2.55;;;1.38;;
19434;SDS011;9853;50.848;4.108;2023-07-29T10:19:02;3.70;;;1.15;;
19434;SDS011;9853;50.848;4.108;2023-07-29T10:21:04;4.20;;;1.00;;
19434;SDS011;9853;50.848;4.108;2023-07-29T10:23:07;4.03;;;1.10;;
19434;SDS011;9853;50.848;4.108;2023-07-29T10:25:10;4.38;;;1.08;;
19434;SDS011;9853;50.848;4.108;2023-07-29T10:27:17;2.80;;;1.00;;
19434;SDS011;9853;50.848;4.108;2023-07-29T10:29:19;2.72;;;1.23;;
19434;SDS011;9853;50.848;4.108;2023-07-29T10:31:23;2.55;;;1.30;;
19434;SDS011;9853;50.848;4.108;2023-07-29T10:33:24;7.47;;;0.90;;
19434;SDS011;9853;50.848;4.108;2023-07-29T10:35:25;2.80;;;1.13;;
19434;SDS011;9853;50.848;4.108;2023-07-29T10:37:26;2.50;;;1.02;;
19434;SDS011;9853;50.848;4.108;2023-07-29T10:39:27;0.98;;;0.90;;
19434;SDS011;9853;50.848;4.108;2023-07-29T10:43:59;2.08;;;1.08;;
19434;SDS011;9853;50.848;4.108;2023-07-29T10:46:19;1.88;;;0.90;;
19434;SDS011;9853;50.848;4.108;2023-07-29T10:48:39;2.92;;;1.13;;
19434;SDS011;9853;50.848;4.108;2023-07-29T10:50:40;2.40;;;1.00;;
19434;SDS011;9853;50.848;4.108;2023-07-29T10:52:41;11.73;;;1.30;;
19434;SDS011;9853;50.848;4.108;2023-07-29T10:54:45;6.97;;;1.25;;
19434;SDS011;9853;50.848;4.108;2023-07-29T10:56:47;2.83;;;1.23;;
19434;SDS011;9853;50.848;4.108;2023-07-29T10:58:49;4.47;;;0.80;;
19434;SDS011;9853;50.848;4.108;2023-07-29T11:00:49;7.10;;;0.85;;
19434;SDS011;9853;50.848;4.108;2023-07-29T11:02:59;4.53;;;0.80;;
19434;SDS011;9853;50.848;4.108;2023-07-29T11:05:08;1.60;;;0.70;;
19434;SDS011;9853;50.848;4.108;2023-07-29T11:11:50;2.72;;;0.95;;
19434;SDS011;9853;50.848;4.108;2023-07-29T11:13:50;4.03;;;0.80;;
19434;SDS011;9853;50.848;4.108;2023-07-29T11:15:52;4.00;;;1.02;;
19434;SDS011;9853;50.848;4.108;2023-07-29T11:19:55;4.32;;;1.10;;
19434;SDS011;9853;50.848;4.108;2023-07-29T11:21:59;6.95;;;1.20;;
19434;SDS011;9853;50.848;4.108;2023-07-29T11:24:00;2.50;;;1.00;;
19434;SDS011;9853;50.848;4.108;2023-07-29T11:26:02;4.22;;;1.13;;
19434;SDS011;9853;50.848;4.108;2023-07-29T11:28:04;4.38;;;1.13;;
19434;SDS011;9853;50.848;4.108;2023-07-29T11:30:05;6.10;;;1.45;;
19434;SDS011;9853;50.848;4.108;2023-07-29T11:32:09;4.05;;;1.30;;
19434;SDS011;9853;50.848;4.108;2023-07-29T11:34:10;3.50;;;1.50;;
19434;SDS011;9853;50.848;4.108;2023-07-29T11:36:18;2.03;;;1.27;;
19434;SDS011;9853;50.848;4.108;2023-07-29T11:38:20;8.07;;;1.27;;
19434;SDS011;9853;50.848;4.108;2023-07-29T11:40:22;2.00;;;1.58;;
19434;SDS011;9853;50.848;4.108;2023-07-29T11:42:24;3.92;;;1.42;;
19434;SDS011;9853;50.848;4.108;2023-07-29T11:44:26;3.25;;;1.50;;
19434;SDS011;9853;50.848;4.108;2023-07-29T11:46:27;4.57;;;1.85;;
19434;SDS011;9853;50.848;4.108;2023-07-29T11:48:30;2.08;;;1.40;;
19434;SDS011;9853;50.848;4.108;2023-07-29T11:50:32;1.67;;;1.10;;
19434;SDS011;9853;50.848;4.108;2023-07-29T11:52:33;2.25;;;1.10;;
19434;SDS011;9853;50.848;4.108;2023-07-29T11:54:35;4.70;;;1.20;;
19434;SDS011;9853;50.848;4.108;2023-07-29T11:56:37;1.38;;;1.02;;
19434;SDS011;9853;50.848;4.108;2023-07-29T11:58:38;3.00;;;1.23;;
19434;SDS011;9853;50.848;4.108;2023-07-29T12:00:39;1.85;;;1.13;;
19434;SDS011;9853;50.848;4.108;2023-07-29T12:02:40;1.65;;;1.10;;
19434;SDS011;9853;50.848;4.108;2023-07-29T12:04:46;4.43;;;1.40;;
19434;SDS011;9853;50.848;4.108;2023-07-29T12:06:48;1.58;;;1.13;;
19434;SDS011;9853;50.848;4.108;2023-07-29T12:08:48;2.80;;;1.20;;
19434;SDS011;9853;50.848;4.108;2023-07-29T12:10:49;3.97;;;1.50;;
19434;SDS011;9853;50.848;4.108;2023-07-29T12:12:50;3.30;;;1.40;;
19434;SDS011;9853;50.848;4.108;2023-07-29T12:14:53;2.38;;;1.50;;
19434;SDS011;9853;50.848;4.108;2023-07-29T12:16:55;2.35;;;1.17;;
19434;SDS011;9853;50.848;4.108;2023-07-29T12:18:55;5.22;;;1.20;;
19434;SDS011;9853;50.848;4.108;2023-07-29T12:21:02;1.75;;;1.13;;
19434;SDS011;9853;50.848;4.108;2023-07-29T12:23:03;1.60;;;1.08;;
19434;SDS011;9853;50.848;4.108;2023-07-29T12:25:06;3.15;;;1.30;;
19434;SDS011;9853;50.848;4.108;2023-07-29T12:27:13;2.15;;;1.35;;
19434;SDS011;9853;50.848;4.108;2023-07-29T12:29:16;1.67;;;1.33;;
19434;SDS011;9853;50.848;4.108;2023-07-29T12:31:19;2.00;;;1.40;;
19434;SDS011;9853;50.848;4.108;2023-07-29T12:33:30;2.25;;;1.40;;
19434;SDS011;9853;50.848;4.108;2023-07-29T12:35:35;3.05;;;1.70;;
19434;SDS011;9853;50.848;4.108;2023-07-29T12:37:37;4.47;;;1.20;;
19434;SDS011;9853;50.848;4.108;2023-07-29T12:39:41;3.00;;;1.08;;
19434;SDS011;9853;50.848;4.108;2023-07-29T12:41:42;1.08;;;0.98;;